sensor_id;sensor_type;location;lat;lon;timestamp;P1;durP1;ratioP1;P2;durP2;ratioP2
54919;SDS011;63804;53.120;8.764;2024-01-30T00:00:30;15.23;;;9.18;;
54919;SDS011;63804;53.120;8.764;2024-01-30T00:03:01;14.63;;;9.85;;
54919;SDS011;63804;53.120;8.764;2024-01-30T00:05:37;15.20;;;9.85;;
54919;SDS011;63804;53.120;8.764;2024-01-30T00:08:08;16.20;;;9.07;;
54919;SDS011;63804;53.120;8.764;2024-01-30T00:10:39;13.45;;;8.52;;
54919;SDS011;63804;53.120;8.764;2024-01-30T00:13:10;14.38;;;8.82;;
54919;SDS011;63804;53.120;8.764;2024-01-30T00:15:41;15.93;;;8.88;;
54919;SDS011;63804;53.120;8.764;2024-01-30T00:18:12;13.05;;;8.57;;
54919;SDS011;63804;53.120;8.764;2024-01-30T00:20:42;12.30;;;7.75;;
54919;SDS011;63804;53.120;8.764;2024-01-30T00:23:13;14.48;;;8.13;;
54919;SDS011;63804;53.120;8.764;2024-01-30T00:25:44;13.07;;;8.18;;
54919;SDS011;63804;53.120;8.764;2024-01-30T00:28:15;13.90;;;8.00;;
54919;SDS011;63804;53.120;8.764;2024-01-30T00:30:45;13.75;;;7.85;;
54919;SDS011;63804;53.120;8.764;2024-01-30T00:33:16;13.85;;;8.18;;
54919;SDS011;63804;53.120;8.764;2024-01-30T00:35:46;12.60;;;8.02;;
54919;SDS011;63804;53.120;8.764;2024-01-30T00:38:17;15.93;;;8.82;;
54919;SDS011;63804;53.120;8.764;2024-01-30T00:40:48;12.25;;;8.05;;
54919;SDS011;63804;53.120;8.764;2024-01-30T00:43:18;13.27;;;7.88;;
54919;SDS011;63804;53.120;8.764;2024-01-30T00:45:50;15.68;;;8.57;;
54919;SDS011;63804;53.120;8.764;2024-01-30T00:48:22;14.55;;;8.00;;
54919;SDS011;63804;53.120;8.764;2024-01-30T00:50:52;13.95;;;8.13;;
54919;SDS011;63804;53.120;8.764;2024-01-30T00:53:23;11.85;;;7.28;;
54919;SDS011;63804;53.120;8.764;2024-01-30T00:55:53;13.65;;;8.15;;
54919;SDS011;63804;53.120;8.764;2024-01-30T00:58:24;13.55;;;8.15;;
54919;SDS011;63804;53.120;8.764;2024-01-30T01:00:55;14.02;;;8.10;;
54919;SDS011;63804;53.120;8.764;2024-01-30T01:03:25;14.07;;;8.27;;
54919;SDS011;63804;53.120;8.764;2024-01-30T01:05:56;12.93;;;7.85;;
54919;SDS011;63804;53.120;8.764;2024-01-30T01:08:27;14.60;;;8.10;;
54919;SDS011;63804;53.120;8.764;2024-01-30T01:10:57;13.63;;;7.80;;
54919;SDS011;63804;53.120;8.764;2024-01-30T01:13:31;14.30;;;7.72;;
54919;SDS011;63804;53.120;8.764;2024-01-30T01:16:01;14.05;;;8.43;;
54919;SDS011;63804;53.120;8.764;2024-01-30T01:18:39;15.10;;;8.43;;
54919;SDS011;63804;53.120;8.764;2024-01-30T01:21:09;12.32;;;7.70;;
54919;SDS011;63804;53.120;8.764;2024-01-30T01:23:42;13.88;;;7.78;;
54919;SDS011;63804;53.120;8.764;2024-01-30T01:26:12;13.07;;;7.68;;
54919;SDS011;63804;53.120;8.764;2024-01-30T01:28:43;15.05;;;8.60;;
54919;SDS011;63804;53.120;8.764;2024-01-30T01:31:14;14.52;;;7.90;;
54919;SDS011;63804;53.120;8.764;2024-01-30T01:33:45;12.25;;;7.63;;
54919;SDS011;63804;53.120;8.764;2024-01-30T01:36:16;13.02;;;7.85;;
54919;SDS011;63804;53.120;8.764;2024-01-30T01:38:46;12.32;;;7.90;;
54919;SDS011;63804;53.120;8.764;2024-01-30T01:41:17;13.50;;;7.70;;
54919;SDS011;63804;53.120;8.764;2024-01-30T01:43:47;12.13;;;7.80;;
54919;SDS011;63804;53.120;8.764;2024-01-30T01:46:18;13.23;;;7.68;;
54919;SDS011;63804;53.120;8.764;2024-01-30T01:48:48;13.00;;;7.57;;
54919;SDS011;63804;53.120;8.764;2024-01-30T01:51:20;14.00;;;8.07;;
54919;SDS011;63804;53.120;8.764;2024-01-30T01:53:52;14.02;;;8.38;;
54919;SDS011;63804;53.120;8.764;2024-01-30T01:56:27;13.68;;;8.70;;
54919;SDS011;63804;53.120;8.764;2024-01-30T01:59:06;14.95;;;7.93;;
54919;SDS011;63804;53.120;8.764;2024-01-30T02:01:44;13.00;;;7.82;;
54919;SDS011;63804;53.120;8.764;2024-01-30T02:04:16;13.98;;;7.85;;
54919;SDS011;63804;53.120;8.764;2024-01-30T02:06:46;13.88;;;7.85;;
54919;SDS011;63804;53.120;8.764;2024-01-30T02:09:17;14.05;;;8.20;;
54919;SDS011;63804;53.120;8.764;2024-01-30T02:11:48;13.85;;;7.75;;
54919;SDS011;63804;53.120;8.764;2024-01-30T02:14:19;13.13;;;8.35;;
54919;SDS011;63804;53.120;8.764;2024-01-30T02:16:49;15.65;;;9.02;;
54919;SDS011;63804;53.120;8.764;2024-01-30T02:19:20;13.43;;;8.15;;
54919;SDS011;63804;53.120;8.764;2024-01-30T02:21:51;12.98;;;7.70;;
54919;SDS011;63804;53.120;8.764;2024-01-30T02:24:22;14.40;;;8.35;;
54919;SDS011;63804;53.120;8.764;2024-01-30T02:26:52;12.77;;;8.50;;
54919;SDS011;63804;53.120;8.764;2024-01-30T02:29:23;14.90;;;8.50;;
54919;SDS011;63804;53.120;8.764;2024-01-30T02:31:53;13.20;;;7.93;;
54919;SDS011;63804;53.120;8.764;2024-01-30T02:34:24;13.98;;;8.43;;
54919;SDS011;63804;53.120;8.764;2024-01-30T02:36:55;12.43;;;8.23;;
54919;SDS011;63804;53.120;8.764;2024-01-30T02:39:25;13.57;;;8.10;;
54919;SDS011;63804;53.120;8.764;2024-01-30T02:41:56;11.63;;;7.65;;
54919;SDS011;63804;53.120;8.764;2024-01-30T02:44:28;13.85;;;7.82;;
54919;SDS011;63804;53.120;8.764;2024-01-30T02:46:59;14.75;;;8.52;;
54919;SDS011;63804;53.120;8.764;2024-01-30T02:49:36;13.15;;;8.52;;
54919;SDS011;63804;53.120;8.764;2024-01-30T02:52:07;13.80;;;8.23;;
54919;SDS011;63804;53.120;8.764;2024-01-30T02:57:12;13.73;;;8.65;;
54919;SDS011;63804;53.120;8.764;2024-01-30T02:59:42;15.90;;;8.38;;
54919;SDS011;63804;53.120;8.764;2024-01-30T03:02:13;13.10;;;8.02;;
54919;SDS011;63804;53.120;8.764;2024-01-30T03:04:44;13.75;;;8.00;;
54919;SDS011;63804;53.120;8.764;2024-01-30T03:07:15;13.82;;;9.02;;
54919;SDS011;63804;53.120;8.764;2024-01-30T03:09:45;13.20;;;8.38;;
54919;SDS011;63804;53.120;8.764;2024-01-30T03:12:16;15.35;;;8.55;;
54919;SDS011;63804;53.120;8.764;2024-01-30T03:14:47;14.57;;;8.63;;
54919;SDS011;63804;53.120;8.764;2024-01-30T03:17:17;15.07;;;8.73;;
54919;SDS011;63804;53.120;8.764;2024-01-30T03:19:48;13.93;;;8.10;;
54919;SDS011;63804;53.120;8.764;2024-01-30T03:22:19;13.75;;;8.60;;
54919;SDS011;63804;53.120;8.764;2024-01-30T03:24:49;13.95;;;8.27;;
54919;SDS011;63804;53.120;8.764;2024-01-30T03:27:20;13.18;;;8.60;;
54919;SDS011;63804;53.120;8.764;2024-01-30T03:29:50;13.10;;;8.68;;
54919;SDS011;63804;53.120;8.764;2024-01-30T03:32:21;15.13;;;9.30;;
54919;SDS011;63804;53.120;8.764;2024-01-30T03:34:51;13.82;;;8.65;;
54919;SDS011;63804;53.120;8.764;2024-01-30T03:37:22;15.20;;;8.98;;
54919;SDS011;63804;53.120;8.764;2024-01-30T03:39:53;13.88;;;9.10;;
54919;SDS011;63804;53.120;8.764;2024-01-30T03:42:23;13.85;;;8.55;;
54919;SDS011;63804;53.120;8.764;2024-01-30T03:44:54;12.95;;;8.32;;
54919;SDS011;63804;53.120;8.764;2024-01-30T03:47:25;14.05;;;8.70;;
54919;SDS011;63804;53.120;8.764;2024-01-30T03:49:55;12.48;;;8.30;;
54919;SDS011;63804;53.120;8.764;2024-01-30T03:52:26;16.63;;;9.15;;
54919;SDS011;63804;53.120;8.764;2024-01-30T03:54:57;15.23;;;8.40;;
54919;SDS011;63804;53.120;8.764;2024-01-30T03:57:29;15.50;;;8.35;;
54919;SDS011;63804;53.120;8.764;2024-01-30T03:59:59;12.77;;;8.63;;
54919;SDS011;63804;53.120;8.764;2024-01-30T04:02:39;13.27;;;8.73;;
54919;SDS011;63804;53.120;8.764;2024-01-30T04:05:09;15.45;;;9.00;;
54919;SDS011;63804;53.120;8.764;2024-01-30T04:07:43;13.15;;;8.38;;
54919;SDS011;63804;53.120;8.764;2024-01-30T04:10:14;13.82;;;8.63;;
54919;SDS011;63804;53.120;8.764;2024-01-30T04:12:43;14.10;;;8.95;;
54919;SDS011;63804;53.120;8.764;2024-01-30T04:15:14;12.80;;;8.15;;
54919;SDS011;63804;53.120;8.764;2024-01-30T04:17:44;12.82;;;7.97;;
54919;SDS011;63804;53.120;8.764;2024-01-30T04:20:14;15.15;;;8.82;;
54919;SDS011;63804;53.120;8.764;2024-01-30T04:22:46;16.67;;;9.30;;
54919;SDS011;63804;53.120;8.764;2024-01-30T04:25:17;15.80;;;8.77;;
54919;SDS011;63804;53.120;8.764;2024-01-30T04:27:46;15.57;;;8.65;;
54919;SDS011;63804;53.120;8.764;2024-01-30T04:30:16;14.48;;;8.80;;
54919;SDS011;63804;53.120;8.764;2024-01-30T04:32:47;14.70;;;8.93;;
54919;SDS011;63804;53.120;8.764;2024-01-30T04:35:17;13.82;;;8.98;;
54919;SDS011;63804;53.120;8.764;2024-01-30T04:37:48;14.18;;;8.55;;
54919;SDS011;63804;53.120;8.764;2024-01-30T04:40:19;13.93;;;8.77;;
54919;SDS011;63804;53.120;8.764;2024-01-30T04:42:54;16.08;;;9.25;;
54919;SDS011;63804;53.120;8.764;2024-01-30T04:45:24;14.18;;;8.13;;
54919;SDS011;63804;53.120;8.764;2024-01-30T04:47:55;16.52;;;8.82;;
54919;SDS011;63804;53.120;8.764;2024-01-30T04:50:27;16.42;;;9.30;;
54919;SDS011;63804;53.120;8.764;2024-01-30T04:52:57;16.25;;;9.05;;
54919;SDS011;63804;53.120;8.764;2024-01-30T04:55:30;14.13;;;9.23;;
54919;SDS011;63804;53.120;8.764;2024-01-30T04:58:01;13.98;;;8.32;;
54919;SDS011;63804;53.120;8.764;2024-01-30T05:00:37;14.07;;;8.60;;
54919;SDS011;63804;53.120;8.764;2024-01-30T05:03:08;16.05;;;8.98;;
54919;SDS011;63804;53.120;8.764;2024-01-30T05:05:41;13.98;;;8.68;;
54919;SDS011;63804;53.120;8.764;2024-01-30T05:08:12;14.73;;;8.65;;
54919;SDS011;63804;53.120;8.764;2024-01-30T05:10:42;15.52;;;9.07;;
54919;SDS011;63804;53.120;8.764;2024-01-30T05:13:13;15.50;;;8.73;;
54919;SDS011;63804;53.120;8.764;2024-01-30T05:15:44;13.77;;;9.20;;
54919;SDS011;63804;53.120;8.764;2024-01-30T05:18:14;17.52;;;9.20;;
54919;SDS011;63804;53.120;8.764;2024-01-30T05:20:45;13.35;;;8.32;;
54919;SDS011;63804;53.120;8.764;2024-01-30T05:23:15;14.45;;;8.15;;
54919;SDS011;63804;53.120;8.764;2024-01-30T05:25:46;20.70;;;9.82;;
54919;SDS011;63804;53.120;8.764;2024-01-30T05:28:17;14.10;;;9.35;;
54919;SDS011;63804;53.120;8.764;2024-01-30T05:30:47;13.30;;;8.88;;
54919;SDS011;63804;53.120;8.764;2024-01-30T05:33:18;14.40;;;8.82;;
54919;SDS011;63804;53.120;8.764;2024-01-30T05:35:48;15.38;;;9.20;;
54919;SDS011;63804;53.120;8.764;2024-01-30T05:38:19;15.95;;;9.25;;
54919;SDS011;63804;53.120;8.764;2024-01-30T05:40:49;16.33;;;9.02;;
54919;SDS011;63804;53.120;8.764;2024-01-30T05:43:20;16.90;;;9.25;;
54919;SDS011;63804;53.120;8.764;2024-01-30T05:45:51;16.23;;;8.90;;
54919;SDS011;63804;53.120;8.764;2024-01-30T05:48:22;17.13;;;9.52;;
54919;SDS011;63804;53.120;8.764;2024-01-30T05:50:52;15.35;;;8.95;;
54919;SDS011;63804;53.120;8.764;2024-01-30T05:53:23;15.88;;;9.23;;
54919;SDS011;63804;53.120;8.764;2024-01-30T05:55:53;13.65;;;9.13;;
54919;SDS011;63804;53.120;8.764;2024-01-30T05:58:24;14.60;;;9.45;;
54919;SDS011;63804;53.120;8.764;2024-01-30T06:00:54;15.55;;;9.35;;
54919;SDS011;63804;53.120;8.764;2024-01-30T06:03:25;14.32;;;9.05;;
54919;SDS011;63804;53.120;8.764;2024-01-30T06:05:56;13.50;;;8.50;;
54919;SDS011;63804;53.120;8.764;2024-01-30T06:08:28;15.25;;;8.82;;
54919;SDS011;63804;53.120;8.764;2024-01-30T06:10:59;14.90;;;8.95;;
54919;SDS011;63804;53.120;8.764;2024-01-30T06:13:37;15.80;;;8.98;;
54919;SDS011;63804;53.120;8.764;2024-01-30T06:16:10;17.08;;;8.52;;
54919;SDS011;63804;53.120;8.764;2024-01-30T06:18:44;13.80;;;8.40;;
54919;SDS011;63804;53.120;8.764;2024-01-30T06:21:14;15.32;;;9.15;;
54919;SDS011;63804;53.120;8.764;2024-01-30T06:23:45;14.23;;;9.32;;
54919;SDS011;63804;53.120;8.764;2024-01-30T06:26:15;16.00;;;9.45;;
54919;SDS011;63804;53.120;8.764;2024-01-30T06:28:46;15.25;;;9.23;;
54919;SDS011;63804;53.120;8.764;2024-01-30T06:31:16;17.45;;;9.35;;
54919;SDS011;63804;53.120;8.764;2024-01-30T06:33:47;18.55;;;9.25;;
54919;SDS011;63804;53.120;8.764;2024-01-30T06:36:18;16.58;;;9.13;;
54919;SDS011;63804;53.120;8.764;2024-01-30T06:38:48;15.88;;;9.90;;
54919;SDS011;63804;53.120;8.764;2024-01-30T06:41:19;14.98;;;9.38;;
54919;SDS011;63804;53.120;8.764;2024-01-30T06:43:49;16.58;;;9.65;;
54919;SDS011;63804;53.120;8.764;2024-01-30T06:46:20;14.98;;;9.80;;
54919;SDS011;63804;53.120;8.764;2024-01-30T06:48:50;16.95;;;9.77;;
54919;SDS011;63804;53.120;8.764;2024-01-30T06:51:21;15.57;;;9.80;;
54919;SDS011;63804;53.120;8.764;2024-01-30T06:53:52;16.23;;;9.45;;
54919;SDS011;63804;53.120;8.764;2024-01-30T06:56:23;17.08;;;9.73;;
54919;SDS011;63804;53.120;8.764;2024-01-30T06:58:53;16.13;;;9.55;;
54919;SDS011;63804;53.120;8.764;2024-01-30T07:01:28;14.30;;;9.20;;
54919;SDS011;63804;53.120;8.764;2024-01-30T07:03:59;15.00;;;9.90;;
54919;SDS011;63804;53.120;8.764;2024-01-30T07:06:37;15.55;;;9.95;;
54919;SDS011;63804;53.120;8.764;2024-01-30T07:09:09;15.85;;;9.73;;
54919;SDS011;63804;53.120;8.764;2024-01-30T07:11:40;15.38;;;9.73;;
54919;SDS011;63804;53.120;8.764;2024-01-30T07:14:11;16.58;;;10.10;;
54919;SDS011;63804;53.120;8.764;2024-01-30T07:16:41;15.18;;;10.13;;
54919;SDS011;63804;53.120;8.764;2024-01-30T07:19:12;17.20;;;9.85;;
54919;SDS011;63804;53.120;8.764;2024-01-30T07:21:42;14.75;;;9.90;;
54919;SDS011;63804;53.120;8.764;2024-01-30T07:24:13;16.75;;;9.57;;
54919;SDS011;63804;53.120;8.764;2024-01-30T07:26:44;16.23;;;10.00;;
54919;SDS011;63804;53.120;8.764;2024-01-30T07:29:14;16.20;;;9.82;;
54919;SDS011;63804;53.120;8.764;2024-01-30T07:31:45;16.02;;;9.90;;
54919;SDS011;63804;53.120;8.764;2024-01-30T07:34:16;18.98;;;10.23;;
54919;SDS011;63804;53.120;8.764;2024-01-30T07:36:47;14.18;;;9.75;;
54919;SDS011;63804;53.120;8.764;2024-01-30T07:39:17;18.48;;;10.45;;
54919;SDS011;63804;53.120;8.764;2024-01-30T07:41:48;18.17;;;10.13;;
54919;SDS011;63804;53.120;8.764;2024-01-30T07:44:18;15.05;;;9.95;;
54919;SDS011;63804;53.120;8.764;2024-01-30T07:46:49;16.23;;;9.68;;
54919;SDS011;63804;53.120;8.764;2024-01-30T07:49:19;17.05;;;10.10;;
54919;SDS011;63804;53.120;8.764;2024-01-30T07:51:50;15.23;;;9.80;;
54919;SDS011;63804;53.120;8.764;2024-01-30T07:54:20;17.45;;;10.07;;
54919;SDS011;63804;53.120;8.764;2024-01-30T07:56:50;17.52;;;9.75;;
54919;SDS011;63804;53.120;8.764;2024-01-30T07:59:21;17.98;;;10.50;;
54919;SDS011;63804;53.120;8.764;2024-01-30T08:01:54;17.42;;;10.38;;
54919;SDS011;63804;53.120;8.764;2024-01-30T08:04:25;15.82;;;9.30;;
54919;SDS011;63804;53.120;8.764;2024-01-30T08:06:55;14.93;;;9.07;;
54919;SDS011;63804;53.120;8.764;2024-01-30T08:09:26;15.98;;;9.77;;
54919;SDS011;63804;53.120;8.764;2024-01-30T08:11:56;19.00;;;10.38;;
54919;SDS011;63804;53.120;8.764;2024-01-30T08:14:29;18.30;;;10.13;;
54919;SDS011;63804;53.120;8.764;2024-01-30T08:17:00;17.73;;;9.93;;
54919;SDS011;63804;53.120;8.764;2024-01-30T08:19:37;15.25;;;9.85;;
54919;SDS011;63804;53.120;8.764;2024-01-30T08:22:07;15.80;;;9.30;;
54919;SDS011;63804;53.120;8.764;2024-01-30T08:24:40;14.20;;;9.93;;
54919;SDS011;63804;53.120;8.764;2024-01-30T08:27:11;16.58;;;9.82;;
54919;SDS011;63804;53.120;8.764;2024-01-30T08:29:42;16.42;;;9.80;;
54919;SDS011;63804;53.120;8.764;2024-01-30T08:32:13;16.33;;;10.45;;
54919;SDS011;63804;53.120;8.764;2024-01-30T08:34:43;18.05;;;10.43;;
54919;SDS011;63804;53.120;8.764;2024-01-30T08:37:14;15.27;;;9.63;;
54919;SDS011;63804;53.120;8.764;2024-01-30T08:39:46;14.85;;;9.93;;
54919;SDS011;63804;53.120;8.764;2024-01-30T08:42:17;16.92;;;9.85;;
54919;SDS011;63804;53.120;8.764;2024-01-30T08:44:53;18.02;;;9.32;;
54919;SDS011;63804;53.120;8.764;2024-01-30T08:47:25;16.08;;;9.75;;
54919;SDS011;63804;53.120;8.764;2024-01-30T08:49:55;16.42;;;10.18;;
54919;SDS011;63804;53.120;8.764;2024-01-30T08:52:26;17.55;;;9.82;;
54919;SDS011;63804;53.120;8.764;2024-01-30T08:54:57;16.83;;;9.95;;
54919;SDS011;63804;53.120;8.764;2024-01-30T08:57:32;16.63;;;9.57;;
54919;SDS011;63804;53.120;8.764;2024-01-30T09:00:03;14.75;;;9.30;;
54919;SDS011;63804;53.120;8.764;2024-01-30T09:02:42;18.83;;;10.13;;
54919;SDS011;63804;53.120;8.764;2024-01-30T09:05:13;15.98;;;9.65;;
54919;SDS011;63804;53.120;8.764;2024-01-30T09:07:46;17.42;;;9.68;;
54919;SDS011;63804;53.120;8.764;2024-01-30T09:10:17;16.20;;;9.57;;
54919;SDS011;63804;53.120;8.764;2024-01-30T09:12:49;16.65;;;10.07;;
54919;SDS011;63804;53.120;8.764;2024-01-30T09:15:20;15.55;;;9.93;;
54919;SDS011;63804;53.120;8.764;2024-01-30T09:17:54;17.35;;;9.70;;
54919;SDS011;63804;53.120;8.764;2024-01-30T09:20:27;16.17;;;9.57;;
54919;SDS011;63804;53.120;8.764;2024-01-30T09:23:00;15.63;;;9.25;;
54919;SDS011;63804;53.120;8.764;2024-01-30T09:25:37;15.07;;;9.65;;
54919;SDS011;63804;53.120;8.764;2024-01-30T09:28:08;19.60;;;10.80;;
54919;SDS011;63804;53.120;8.764;2024-01-30T09:30:39;17.25;;;9.40;;
54919;SDS011;63804;53.120;8.764;2024-01-30T09:33:10;17.33;;;10.02;;
54919;SDS011;63804;53.120;8.764;2024-01-30T09:35:40;16.58;;;9.43;;
54919;SDS011;63804;53.120;8.764;2024-01-30T09:38:11;16.50;;;9.50;;
54919;SDS011;63804;53.120;8.764;2024-01-30T09:43:22;16.88;;;9.35;;
54919;SDS011;63804;53.120;8.764;2024-01-30T09:45:56;15.18;;;9.20;;
54919;SDS011;63804;53.120;8.764;2024-01-30T09:48:30;14.85;;;8.98;;
54919;SDS011;63804;53.120;8.764;2024-01-30T09:51:03;17.83;;;9.20;;
54919;SDS011;63804;53.120;8.764;2024-01-30T09:53:37;16.42;;;9.48;;
54919;SDS011;63804;53.120;8.764;2024-01-30T09:56:10;14.40;;;9.07;;
54919;SDS011;63804;53.120;8.764;2024-01-30T09:58:41;16.38;;;9.45;;
54919;SDS011;63804;53.120;8.764;2024-01-30T10:01:12;15.10;;;9.13;;
54919;SDS011;63804;53.120;8.764;2024-01-30T10:03:43;17.50;;;9.02;;
54919;SDS011;63804;53.120;8.764;2024-01-30T10:06:14;15.50;;;8.90;;
54919;SDS011;63804;53.120;8.764;2024-01-30T10:08:45;16.63;;;9.15;;
54919;SDS011;63804;53.120;8.764;2024-01-30T10:11:16;14.88;;;9.35;;
54919;SDS011;63804;53.120;8.764;2024-01-30T10:13:46;16.45;;;8.95;;
54919;SDS011;63804;53.120;8.764;2024-01-30T10:16:17;17.45;;;9.73;;
54919;SDS011;63804;53.120;8.764;2024-01-30T10:18:47;18.23;;;9.30;;
54919;SDS011;63804;53.120;8.764;2024-01-30T10:21:18;14.02;;;9.02;;
54919;SDS011;63804;53.120;8.764;2024-01-30T10:23:49;15.90;;;8.98;;
54919;SDS011;63804;53.120;8.764;2024-01-30T10:26:20;15.05;;;8.95;;
54919;SDS011;63804;53.120;8.764;2024-01-30T10:28:51;13.95;;;8.88;;
54919;SDS011;63804;53.120;8.764;2024-01-30T10:31:21;13.27;;;8.35;;
54919;SDS011;63804;53.120;8.764;2024-01-30T10:33:53;13.52;;;8.30;;
54919;SDS011;63804;53.120;8.764;2024-01-30T10:36:40;14.38;;;8.50;;
54919;SDS011;63804;53.120;8.764;2024-01-30T10:39:13;16.88;;;9.35;;
54919;SDS011;63804;53.120;8.764;2024-01-30T10:41:47;15.68;;;9.05;;
54919;SDS011;63804;53.120;8.764;2024-01-30T10:44:19;16.50;;;8.50;;
54919;SDS011;63804;53.120;8.764;2024-01-30T10:46:54;12.23;;;8.13;;
54919;SDS011;63804;53.120;8.764;2024-01-30T10:49:37;14.68;;;8.32;;
54919;SDS011;63804;53.120;8.764;2024-01-30T10:52:09;13.43;;;7.78;;
54919;SDS011;63804;53.120;8.764;2024-01-30T10:54:40;13.30;;;8.10;;
54919;SDS011;63804;53.120;8.764;2024-01-30T10:57:15;15.70;;;8.65;;
54919;SDS011;63804;53.120;8.764;2024-01-30T10:59:47;14.80;;;8.38;;
54919;SDS011;63804;53.120;8.764;2024-01-30T11:02:18;14.07;;;8.45;;
54919;SDS011;63804;53.120;8.764;2024-01-30T11:04:50;13.63;;;8.18;;
54919;SDS011;63804;53.120;8.764;2024-01-30T11:07:28;14.40;;;8.80;;
54919;SDS011;63804;53.120;8.764;2024-01-30T11:12:41;15.80;;;9.02;;
54919;SDS011;63804;53.120;8.764;2024-01-30T11:15:14;13.13;;;8.30;;
54919;SDS011;63804;53.120;8.764;2024-01-30T11:22:55;14.13;;;8.20;;
54919;SDS011;63804;53.120;8.764;2024-01-30T11:25:31;15.38;;;7.95;;
54919;SDS011;63804;53.120;8.764;2024-01-30T11:28:02;15.40;;;8.43;;
54919;SDS011;63804;53.120;8.764;2024-01-30T11:30:38;16.67;;;9.05;;
54919;SDS011;63804;53.120;8.764;2024-01-30T11:33:13;12.40;;;7.85;;
54919;SDS011;63804;53.120;8.764;2024-01-30T11:35:45;14.88;;;8.02;;
54919;SDS011;63804;53.120;8.764;2024-01-30T11:38:17;15.52;;;8.18;;
54919;SDS011;63804;53.120;8.764;2024-01-30T11:40:48;14.88;;;8.68;;
54919;SDS011;63804;53.120;8.764;2024-01-30T11:43:20;12.20;;;7.30;;
54919;SDS011;63804;53.120;8.764;2024-01-30T11:45:50;16.95;;;8.00;;
54919;SDS011;63804;53.120;8.764;2024-01-30T11:48:22;14.35;;;8.13;;
54919;SDS011;63804;53.120;8.764;2024-01-30T11:50:53;14.35;;;7.25;;
54919;SDS011;63804;53.120;8.764;2024-01-30T11:53:24;12.55;;;7.18;;
54919;SDS011;63804;53.120;8.764;2024-01-30T11:55:55;14.98;;;7.68;;
54919;SDS011;63804;53.120;8.764;2024-01-30T11:58:27;17.50;;;8.07;;
54919;SDS011;63804;53.120;8.764;2024-01-30T12:00:59;15.57;;;7.90;;
54919;SDS011;63804;53.120;8.764;2024-01-30T12:03:36;15.10;;;8.18;;
54919;SDS011;63804;53.120;8.764;2024-01-30T12:06:07;13.20;;;7.68;;
54919;SDS011;63804;53.120;8.764;2024-01-30T12:08:38;16.35;;;8.60;;
54919;SDS011;63804;53.120;8.764;2024-01-30T12:11:09;15.57;;;7.85;;
54919;SDS011;63804;53.120;8.764;2024-01-30T12:13:39;15.15;;;8.48;;
54919;SDS011;63804;53.120;8.764;2024-01-30T12:16:10;15.68;;;8.68;;
54919;SDS011;63804;53.120;8.764;2024-01-30T12:18:41;18.50;;;9.25;;
54919;SDS011;63804;53.120;8.764;2024-01-30T12:21:11;14.57;;;8.38;;
54919;SDS011;63804;53.120;8.764;2024-01-30T12:23:42;15.25;;;8.35;;
54919;SDS011;63804;53.120;8.764;2024-01-30T12:26:16;16.67;;;7.75;;
54919;SDS011;63804;53.120;8.764;2024-01-30T12:28:50;14.50;;;8.43;;
54919;SDS011;63804;53.120;8.764;2024-01-30T12:31:27;14.38;;;8.07;;
54919;SDS011;63804;53.120;8.764;2024-01-30T12:33:59;14.10;;;7.90;;
54919;SDS011;63804;53.120;8.764;2024-01-30T12:36:38;15.75;;;8.25;;
54919;SDS011;63804;53.120;8.764;2024-01-30T12:39:12;17.02;;;8.63;;
54919;SDS011;63804;53.120;8.764;2024-01-30T12:41:45;14.02;;;8.00;;
54919;SDS011;63804;53.120;8.764;2024-01-30T12:44:15;16.88;;;8.50;;
54919;SDS011;63804;53.120;8.764;2024-01-30T12:46:46;16.73;;;7.78;;
54919;SDS011;63804;53.120;8.764;2024-01-30T12:49:18;16.35;;;7.82;;
54919;SDS011;63804;53.120;8.764;2024-01-30T12:51:48;17.30;;;8.38;;
54919;SDS011;63804;53.120;8.764;2024-01-30T12:54:22;13.63;;;7.60;;
54919;SDS011;63804;53.120;8.764;2024-01-30T12:57:50;14.73;;;8.07;;
54919;SDS011;63804;53.120;8.764;2024-01-30T13:00:20;16.98;;;7.82;;
54919;SDS011;63804;53.120;8.764;2024-01-30T13:02:50;13.45;;;7.25;;
54919;SDS011;63804;53.120;8.764;2024-01-30T13:05:21;15.13;;;8.32;;
54919;SDS011;63804;53.120;8.764;2024-01-30T13:07:50;14.45;;;9.05;;
54919;SDS011;63804;53.120;8.764;2024-01-30T13:10:21;17.98;;;8.75;;
54919;SDS011;63804;53.120;8.764;2024-01-30T13:12:53;17.48;;;8.48;;
54919;SDS011;63804;53.120;8.764;2024-01-30T13:15:23;12.95;;;8.07;;
54919;SDS011;63804;53.120;8.764;2024-01-30T13:17:53;13.10;;;7.95;;
54919;SDS011;63804;53.120;8.764;2024-01-30T13:20:24;15.73;;;7.93;;
54919;SDS011;63804;53.120;8.764;2024-01-30T13:22:55;15.75;;;7.38;;
54919;SDS011;63804;53.120;8.764;2024-01-30T13:25:26;16.10;;;7.95;;
54919;SDS011;63804;53.120;8.764;2024-01-30T13:27:56;16.88;;;8.52;;
54919;SDS011;63804;53.120;8.764;2024-01-30T13:30:32;13.82;;;7.60;;
54919;SDS011;63804;53.120;8.764;2024-01-30T13:33:03;12.68;;;6.68;;
54919;SDS011;63804;53.120;8.764;2024-01-30T13:35:38;13.63;;;7.38;;
54919;SDS011;63804;53.120;8.764;2024-01-30T13:38:08;13.68;;;7.03;;
54919;SDS011;63804;53.120;8.764;2024-01-30T13:40:39;14.32;;;7.30;;
54919;SDS011;63804;53.120;8.764;2024-01-30T13:43:09;17.08;;;8.32;;
54919;SDS011;63804;53.120;8.764;2024-01-30T13:45:40;17.55;;;8.60;;
54919;SDS011;63804;53.120;8.764;2024-01-30T13:48:12;13.07;;;7.22;;
54919;SDS011;63804;53.120;8.764;2024-01-30T13:50:43;12.85;;;7.10;;
54919;SDS011;63804;53.120;8.764;2024-01-30T13:53:13;17.55;;;7.57;;
54919;SDS011;63804;53.120;8.764;2024-01-30T13:55:44;13.45;;;7.30;;
54919;SDS011;63804;53.120;8.764;2024-01-30T13:58:15;14.48;;;7.38;;
54919;SDS011;63804;53.120;8.764;2024-01-30T14:00:46;16.30;;;7.25;;
54919;SDS011;63804;53.120;8.764;2024-01-30T14:03:17;18.92;;;7.72;;
54919;SDS011;63804;53.120;8.764;2024-01-30T14:05:47;14.05;;;7.20;;
54919;SDS011;63804;53.120;8.764;2024-01-30T14:08:18;14.65;;;7.82;;
54919;SDS011;63804;53.120;8.764;2024-01-30T14:10:52;14.18;;;8.10;;
54919;SDS011;63804;53.120;8.764;2024-01-30T14:13:22;16.27;;;7.13;;
54919;SDS011;63804;53.120;8.764;2024-01-30T14:15:55;15.55;;;7.20;;
54919;SDS011;63804;53.120;8.764;2024-01-30T14:18:26;12.93;;;6.68;;
54919;SDS011;63804;53.120;8.764;2024-01-30T14:20:56;14.60;;;7.25;;
54919;SDS011;63804;53.120;8.764;2024-01-30T14:23:28;12.00;;;6.68;;
54919;SDS011;63804;53.120;8.764;2024-01-30T14:25:59;14.88;;;7.70;;
54919;SDS011;63804;53.120;8.764;2024-01-30T14:28:36;19.52;;;8.35;;
54919;SDS011;63804;53.120;8.764;2024-01-30T14:31:07;15.40;;;8.23;;
54919;SDS011;63804;53.120;8.764;2024-01-30T14:33:38;15.32;;;7.70;;
54919;SDS011;63804;53.120;8.764;2024-01-30T14:36:10;13.40;;;7.63;;
54919;SDS011;63804;53.120;8.764;2024-01-30T14:38:40;18.17;;;8.30;;
54919;SDS011;63804;53.120;8.764;2024-01-30T14:41:13;17.92;;;8.52;;
54919;SDS011;63804;53.120;8.764;2024-01-30T14:43:43;14.25;;;8.02;;
54919;SDS011;63804;53.120;8.764;2024-01-30T14:46:14;13.73;;;8.95;;
54919;SDS011;63804;53.120;8.764;2024-01-30T14:48:45;15.60;;;8.00;;
54919;SDS011;63804;53.120;8.764;2024-01-30T14:51:15;15.60;;;9.48;;
54919;SDS011;63804;53.120;8.764;2024-01-30T14:53:46;14.65;;;8.68;;
54919;SDS011;63804;53.120;8.764;2024-01-30T14:56:17;15.43;;;7.75;;
54919;SDS011;63804;53.120;8.764;2024-01-30T14:58:48;14.93;;;8.30;;
54919;SDS011;63804;53.120;8.764;2024-01-30T15:01:19;15.93;;;8.20;;
54919;SDS011;63804;53.120;8.764;2024-01-30T15:03:49;17.38;;;8.85;;
54919;SDS011;63804;53.120;8.764;2024-01-30T15:06:21;15.77;;;8.50;;
54919;SDS011;63804;53.120;8.764;2024-01-30T15:08:57;14.05;;;7.90;;
54919;SDS011;63804;53.120;8.764;2024-01-30T15:11:31;15.07;;;7.25;;